Portada
METAR-TAF:

METAR-TAF

Aeropuertos :

Aeropuerto Internacional de Talagi

Arjángelsk, Rusia

latitud: 64-30N, longitud: 040-44E, altitud: 13 m

Observación

El informe se hizo hace 35 minutos, a las 07:00 UTC
Viento 6 kt del sur-sureste, variando entre este y suroeste
Temperatura 27°C
Humedad 51%
Presión 1017 hPa
Visibilidad 10 km o más
sin nubes por debajo de 1500 m y sin presencia de cumulonimbus.

METAR: ULAA 210700Z 15003MPS 080V220 CAVOK 27/16 Q1017 R08/CLRD70 NOSIG RMK QFE762/1016

Hora: 10:35 (07:35 UTC)

Pronóstico

El informe se hizo hace 2 horas y 35 minutos, a las 05:00 UTC
Pronóstico válido del 21 a las 06 UTC al 22 a las 06 UTC
Viento 10 kt del sureste
Visibilidad 10 km o más
Nubes dispersas a una altura de 2000 ft
Temporalmente
del 21 a las 06 UTC al 21 a las 18 UTC
Viento 10 kt del este-sureste con ráfagas de 21 kt

TAF: ULAA 210500Z 2106/2206 14005MPS 9999 SCT020 TEMPO 2106/2118 12005G11MPS

Observaciones y pronósticos meteorológicos de más de 4000 aeropuertos (mensajes METAR y TAF).

Los puntos amarillos y rojos representan las estaciones disponibles.

Ponga el ratón en el punto deseado para ver el nombre de la estación.

Haga clic para ver las observaciones y los pronósticos meteorológicos.

Para cambiar el mapa : haga clic en los botones verdes con una cruz de color negro para hacer un zoom, en el botón verde con un guión para alejar o en las flechas verdes para mapas adyacentes.


METAR-TAF: